Time;durP1;ratioP1;P1;durP2;ratioP2;P2;SDS_P1;SDS_P2;PMS_P1;PMS_P2;Temp;Humidity;BMP_temperature;BMP_pressure;BME280_temperature;BME280_humidity;BME280_pressure;Samples;Min_cycle;Max_cycle;Signal;HPM_P1;HPM_P2
2023/03/06 00:00:18;;;;;;;1.33;0.70;;;3.70;99.90;;;;;;4974996;28;20230;-86
2023/03/06 00:02:45;;;;;;;0.90;0.60;;;3.60;99.90;;;;;;4974744;28;20240;-82
2023/03/06 00:05:12;;;;;;;0.83;0.73;;;3.60;99.90;;;;;;4974755;28;20205;-83
2023/03/06 00:07:39;;;;;;;3.87;1.00;;;3.50;99.90;;;;;;4974497;28;20287;-86
2023/03/06 00:10:07;;;;;;;1.23;0.60;;;3.50;99.90;;;;;;4974681;28;21062;-85
2023/03/06 00:12:34;;;;;;;0.97;0.77;;;3.40;99.90;;;;;;4974765;28;20284;-84
2023/03/06 00:15:01;;;;;;;3.60;1.00;;;3.50;99.90;;;;;;4973357;28;20196;-84
2023/03/06 00:17:29;;;;;;;3.77;0.80;;;3.50;99.90;;;;;;4974905;28;20275;-81
2023/03/06 00:19:56;;;;;;;2.60;1.00;;;3.50;99.90;;;;;;4993044;28;20354;-83
2023/03/06 00:22:23;;;;;;;2.27;1.07;;;3.50;99.90;;;;;;4992949;28;20283;-83
2023/03/06 00:24:53;;;;;;;1.90;0.97;;;3.50;99.90;;;;;;4993428;28;20282;-82
2023/03/06 00:27:20;;;;;;;3.57;1.27;;;3.50;99.90;;;;;;4993089;28;20210;-81
2023/03/06 00:29:48;;;;;;;3.80;0.93;;;3.40;99.90;;;;;;4980634;28;20232;-82
2023/03/06 00:32:15;;;;;;;2.30;1.10;;;3.50;99.90;;;;;;4973379;28;20319;-81
2023/03/06 00:34:43;;;;;;;3.47;1.50;;;3.50;99.90;;;;;;4973271;28;20209;-83
2023/03/06 00:37:10;;;;;;;1.13;0.87;;;3.50;99.90;;;;;;4972968;28;20284;-81
2023/03/06 00:39:37;;;;;;;2.17;1.00;;;3.40;99.90;;;;;;4973999;28;20280;-84
2023/03/06 00:42:04;;;;;;;2.53;1.47;;;3.40;99.90;;;;;;4973535;28;20292;-82
2023/03/06 00:44:31;;;;;;;2.70;1.40;;;3.40;99.90;;;;;;4973515;28;20205;-83
2023/03/06 00:46:59;;;;;;;2.30;1.17;;;3.30;99.90;;;;;;4973377;28;20208;-81
2023/03/06 00:49:27;;;;;;;4.03;1.87;;;3.40;99.90;;;;;;4973389;28;20660;-83
2023/03/06 00:51:55;;;;;;;4.07;2.30;;;3.40;99.90;;;;;;4973907;28;20283;-80
2023/03/06 00:54:22;;;;;;;6.00;2.73;;;3.40;99.90;;;;;;4974280;28;20287;-81
2023/03/06 00:56:49;;;;;;;4.77;2.20;;;3.50;99.90;;;;;;4972777;28;20263;-80
2023/03/06 00:59:16;;;;;;;2.90;1.20;;;3.60;99.90;;;;;;4973598;28;20243;-80
2023/03/06 01:01:43;;;;;;;2.83;1.00;;;3.80;99.90;;;;;;4973487;28;20225;-81
2023/03/06 01:04:10;;;;;;;3.30;1.30;;;3.90;99.90;;;;;;4973603;28;20240;-84
2023/03/06 01:06:37;;;;;;;5.00;1.20;;;4.10;99.90;;;;;;4975564;28;20228;-81
2023/03/06 01:09:06;;;;;;;4.07;1.50;;;4.20;99.90;;;;;;4977666;28;20284;-80
2023/03/06 01:11:33;;;;;;;6.33;1.33;;;4.10;99.90;;;;;;4977483;28;20197;-84
2023/03/06 01:13:59;;;;;;;3.47;1.60;;;4.20;99.90;;;;;;4977826;28;20300;-86
2023/03/06 01:16:27;;;;;;;4.10;1.70;;;4.20;99.90;;;;;;4978278;28;20308;-83
2023/03/06 01:18:53;;;;;;;3.37;1.80;;;4.30;99.90;;;;;;4977629;28;20341;-83
2023/03/06 01:21:20;;;;;;;2.53;1.30;;;4.30;99.90;;;;;;4984381;28;20306;-84
2023/03/06 01:23:47;;;;;;;3.67;1.17;;;4.40;99.90;;;;;;4997027;28;20188;-84
2023/03/06 01:26:16;;;;;;;2.00;0.90;;;4.40;99.90;;;;;;4996739;28;20279;-86
2023/03/06 01:28:43;;;;;;;4.80;1.67;;;4.40;99.90;;;;;;4996907;28;20231;-86
2023/03/06 01:31:11;;;;;;;3.13;1.17;;;4.40;99.90;;;;;;4997058;28;20204;-86
2023/03/06 01:33:38;;;;;;;2.20;1.40;;;4.40;99.90;;;;;;4996899;28;20819;-83
2023/03/06 01:36:07;;;;;;;1.83;0.90;;;4.50;99.90;;;;;;4996749;28;20184;-86
2023/03/06 01:38:34;;;;;;;3.20;1.00;;;4.40;99.90;;;;;;4980310;28;20204;-82
2023/03/06 01:41:06;;;;;;;0.93;0.80;;;4.40;99.90;;;;;;4976807;28;20256;-84
2023/03/06 01:43:36;;;;;;;3.60;0.87;;;4.40;99.90;;;;;;4978258;28;20231;-85
2023/03/06 01:46:34;;;;;;;2.10;1.17;;;4.30;99.90;;;;;;4977779;28;20228;-84
2023/03/06 01:49:05;;;;;;;2.40;0.80;;;4.30;99.90;;;;;;4969623;28;20213;-86
2023/03/06 01:51:38;;;;;;;1.30;0.90;;;4.30;99.90;;;;;;4976700;28;20287;-81
2023/03/06 01:54:08;;;;;;;2.57;0.93;;;4.20;99.90;;;;;;4975624;28;20270;-82
2023/03/06 01:56:36;;;;;;;5.40;1.50;;;4.20;99.90;;;;;;4975289;28;20205;-82
2023/03/06 01:59:05;;;;;;;4.97;2.30;;;4.20;99.90;;;;;;4976519;28;20302;-83
2023/03/06 02:01:32;;;;;;;4.37;2.67;;;4.20;99.90;;;;;;4975956;28;20224;-81
2023/03/06 02:04:01;;;;;;;4.27;1.90;;;4.20;99.90;;;;;;4977364;28;20224;-83
2023/03/06 02:06:28;;;;;;;5.93;2.00;;;4.20;99.90;;;;;;4976737;28;20833;-86
2023/03/06 02:08:56;;;;;;;5.30;2.27;;;4.30;99.90;;;;;;4976798;28;20232;-83
2023/03/06 02:11:25;;;;;;;4.23;1.73;;;4.30;99.90;;;;;;4976215;28;20283;-83
2023/03/06 02:13:53;;;;;;;3.93;1.40;;;4.40;99.90;;;;;;4975313;28;20216;-80
2023/03/06 02:16:25;;;;;;;1.50;1.20;;;4.50;99.90;;;;;;4975148;28;20204;-80
2023/03/06 02:18:53;;;;;;;2.63;0.83;;;4.50;99.90;;;;;;4975452;28;20199;-80
2023/03/06 02:21:24;;;;;;;2.50;1.00;;;4.60;99.90;;;;;;4974541;28;20228;-81
2023/03/06 02:23:59;;;;;;;3.97;1.00;;;4.60;99.90;;;;;;4974840;28;20205;-81
2023/03/06 02:26:29;;;;;;;3.00;0.90;;;4.60;99.90;;;;;;4975240;28;20192;-82
2023/03/06 02:28:58;;;;;;;1.67;0.80;;;4.50;99.90;;;;;;4974365;28;20287;-82
2023/03/06 02:31:28;;;;;;;3.57;1.30;;;4.50;99.90;;;;;;4974721;28;20631;-80
2023/03/06 02:34:03;;;;;;;1.57;1.47;;;4.50;99.90;;;;;;4975273;28;20520;-79
2023/03/06 02:36:31;;;;;;;6.03;2.47;;;4.50;99.90;;;;;;4974487;28;20208;-81
2023/03/06 02:38:59;;;;;;;4.27;2.20;;;4.50;99.90;;;;;;4974624;28;20211;-81
2023/03/06 02:41:28;;;;;;;4.87;2.13;;;4.40;99.90;;;;;;4973569;28;20233;-82
2023/03/06 02:43:55;;;;;;;3.23;1.80;;;4.40;99.90;;;;;;4974786;28;20786;-81
2023/03/06 02:46:21;;;;;;;1.90;1.43;;;4.40;99.90;;;;;;4975323;28;20280;-83
2023/03/06 02:48:48;;;;;;;3.57;1.90;;;4.40;99.90;;;;;;4975481;28;20554;-82
2023/03/06 02:51:15;;;;;;;4.83;1.53;;;4.40;99.90;;;;;;4975575;28;20288;-83
2023/03/06 02:53:42;;;;;;;5.03;2.30;;;4.40;99.90;;;;;;4994189;28;20200;-81
2023/03/06 02:56:09;;;;;;;5.33;2.13;;;4.50;99.90;;;;;;4987809;28;20300;-82
2023/03/06 02:58:37;;;;;;;8.80;2.37;;;4.50;99.90;;;;;;4975255;28;20256;-82
2023/03/06 03:01:05;;;;;;;2.97;1.10;;;4.60;99.90;;;;;;4975215;28;20613;-82
2023/03/06 03:03:33;;;;;;;5.53;1.57;;;4.70;99.90;;;;;;4975112;28;20209;-82
2023/03/06 03:06:00;;;;;;;6.20;0.93;;;4.80;99.90;;;;;;4974975;28;20606;-82
2023/03/06 03:08:27;;;;;;;6.00;0.97;;;4.80;99.90;;;;;;4975051;28;20291;-84
2023/03/06 03:10:55;;;;;;;4.57;0.87;;;4.80;99.90;;;;;;4974422;28;20657;-81
2023/03/06 03:13:23;;;;;;;4.27;1.23;;;4.80;99.90;;;;;;4974933;28;20200;-83
2023/03/06 03:15:59;;;;;;;3.03;0.83;;;4.90;99.90;;;;;;4974870;28;20279;-82
2023/03/06 03:18:27;;;;;;;3.20;0.93;;;4.90;99.90;;;;;;4974669;28;20279;-81
2023/03/06 03:20:54;;;;;;;2.87;0.67;;;4.90;99.90;;;;;;4974671;28;20216;-78
2023/03/06 03:23:21;;;;;;;4.03;1.03;;;4.90;99.90;;;;;;4974243;28;20200;-83
2023/03/06 03:25:48;;;;;;;4.00;0.97;;;4.90;99.90;;;;;;4974447;28;20291;-81
2023/03/06 03:28:14;;;;;;;1.60;0.60;;;4.90;99.90;;;;;;4973801;28;20247;-79
2023/03/06 03:30:42;;;;;;;2.63;0.70;;;4.80;99.90;;;;;;4972970;28;20240;-78
2023/03/06 03:33:11;;;;;;;2.47;0.80;;;4.80;99.90;;;;;;4973574;28;20268;-80
2023/03/06 03:35:38;;;;;;;6.43;0.90;;;4.70;99.90;;;;;;4974107;28;20312;-79
2023/03/06 03:38:05;;;;;;;3.93;0.80;;;4.60;99.90;;;;;;4973463;28;20915;-81
2023/03/06 03:40:32;;;;;;;3.97;1.00;;;4.60;99.90;;;;;;4974144;28;20355;-80
2023/03/06 03:42:59;;;;;;;3.47;0.93;;;4.60;99.90;;;;;;4973733;28;20225;-80
2023/03/06 03:45:26;;;;;;;6.43;1.17;;;4.60;99.90;;;;;;4973664;28;20192;-82
2023/03/06 03:47:53;;;;;;;7.67;1.00;;;4.60;99.90;;;;;;4974373;28;20204;-82
2023/03/06 03:50:21;;;;;;;4.43;1.00;;;4.60;99.90;;;;;;4974116;28;20612;-81
2023/03/06 03:52:48;;;;;;;6.07;0.90;;;4.60;99.90;;;;;;4974185;28;20232;-81
2023/03/06 03:55:15;;;;;;;4.97;1.30;;;4.50;99.90;;;;;;4973594;28;20224;-81
2023/03/06 03:57:42;;;;;;;5.57;0.97;;;4.50;99.90;;;;;;4972816;28;20240;-80
2023/03/06 04:00:14;;;;;;;3.10;0.80;;;4.50;99.90;;;;;;4988913;28;20239;-82
2023/03/06 04:02:42;;;;;;;3.17;0.90;;;4.50;99.90;;;;;;4987248;28;20239;-82
2023/03/06 04:05:10;;;;;;;1.80;0.70;;;4.50;99.90;;;;;;4974278;28;20193;-81
2023/03/06 04:07:38;;;;;;;6.03;1.07;;;4.40;99.90;;;;;;4982345;28;20292;-81
2023/03/06 04:10:06;;;;;;;5.93;0.67;;;4.50;99.90;;;;;;4994031;28;20624;-83
2023/03/06 04:12:33;;;;;;;3.53;0.90;;;4.50;99.90;;;;;;4987762;28;20213;-80
2023/03/06 04:15:00;;;;;;;2.40;0.70;;;4.40;99.90;;;;;;4974253;28;20282;-83
2023/03/06 04:17:27;;;;;;;1.83;0.70;;;4.40;99.90;;;;;;4974078;28;20610;-84
2023/03/06 04:19:54;;;;;;;2.77;0.60;;;4.40;99.90;;;;;;4974224;28;20231;-82
2023/03/06 04:22:21;;;;;;;2.57;0.80;;;4.30;99.90;;;;;;4973841;28;20256;-83
2023/03/06 04:24:50;;;;;;;2.17;0.80;;;4.30;99.90;;;;;;4974680;28;20239;-84
2023/03/06 04:27:17;;;;;;;1.70;0.70;;;4.30;99.90;;;;;;4974517;28;20216;-81
2023/03/06 04:29:44;;;;;;;3.20;1.07;;;4.20;99.90;;;;;;4974525;28;20216;-83
2023/03/06 04:32:11;;;;;;;5.47;0.73;;;4.20;99.90;;;;;;4974495;28;20263;-82
2023/03/06 04:34:38;;;;;;;3.10;0.70;;;4.20;99.90;;;;;;4974355;28;20620;-83
2023/03/06 04:37:05;;;;;;;3.43;0.77;;;4.20;99.90;;;;;;4979191;28;20199;-83
2023/03/06 04:39:32;;;;;;;6.60;0.77;;;4.10;99.90;;;;;;4994168;28;20286;-83
2023/03/06 04:42:00;;;;;;;1.07;0.93;;;4.10;99.90;;;;;;4996426;28;20602;-84
2023/03/06 04:44:27;;;;;;;3.27;0.80;;;4.10;99.90;;;;;;4997668;28;20656;-83
2023/03/06 04:46:54;;;;;;;2.40;1.20;;;4.00;99.90;;;;;;4978083;28;20226;-84
2023/03/06 04:49:21;;;;;;;3.30;0.60;;;4.00;99.90;;;;;;4978182;28;20231;-83
2023/03/06 04:51:48;;;;;;;3.57;0.67;;;3.90;99.90;;;;;;4977944;28;20204;-83
2023/03/06 04:54:15;;;;;;;3.07;1.00;;;3.90;99.90;;;;;;4977235;28;20287;-85
2023/03/06 04:56:42;;;;;;;1.90;0.70;;;3.90;99.90;;;;;;4976693;28;20292;-84
2023/03/06 04:59:10;;;;;;;0.90;0.80;;;3.80;99.90;;;;;;4977452;28;20208;-80
2023/03/06 05:01:37;;;;;;;4.20;0.77;;;3.80;99.90;;;;;;4976631;28;20220;-79
2023/03/06 05:04:04;;;;;;;3.13;0.80;;;3.80;99.90;;;;;;4975989;28;20230;-79
2023/03/06 05:06:31;;;;;;;2.63;0.80;;;3.80;99.90;;;;;;4976977;28;20211;-81
2023/03/06 05:08:58;;;;;;;2.00;0.90;;;3.70;99.90;;;;;;4977131;28;20239;-81
2023/03/06 05:11:25;;;;;;;3.27;1.00;;;3.70;99.90;;;;;;4976186;28;20644;-82
2023/03/06 05:13:52;;;;;;;4.73;0.93;;;3.70;99.90;;;;;;4977282;28;20292;-81
2023/03/06 05:16:20;;;;;;;6.40;1.20;;;3.70;99.90;;;;;;4975680;28;20697;-81
2023/03/06 05:18:47;;;;;;;4.37;1.20;;;3.70;99.90;;;;;;4976547;28;20193;-81
2023/03/06 05:21:14;;;;;;;2.90;1.00;;;3.60;99.90;;;;;;4976676;28;20299;-83
2023/03/06 05:23:41;;;;;;;3.57;0.77;;;3.60;99.90;;;;;;4976484;28;20550;-82
2023/03/06 05:26:09;;;;;;;5.27;0.97;;;3.60;99.90;;;;;;4977042;28;20189;-82
2023/03/06 05:28:36;;;;;;;3.27;0.87;;;3.60;99.90;;;;;;4976829;28;20569;-81
2023/03/06 05:31:03;;;;;;;4.00;1.93;;;3.50;99.90;;;;;;4976245;28;20215;-80
2023/03/06 05:33:32;;;;;;;5.23;2.20;;;3.50;99.90;;;;;;4975913;28;20299;-81
2023/03/06 05:35:59;;;;;;;3.00;1.03;;;3.50;99.90;;;;;;4976543;28;20230;-82
2023/03/06 05:38:27;;;;;;;6.23;1.37;;;3.50;99.90;;;;;;4976338;28;20256;-82
2023/03/06 05:40:54;;;;;;;2.23;1.40;;;3.50;99.90;;;;;;4976295;28;20225;-84
2023/03/06 05:43:21;;;;;;;2.93;0.90;;;3.40;99.90;;;;;;4976893;28;20331;-80
2023/03/06 05:45:49;;;;;;;6.70;2.13;;;3.40;99.90;;;;;;4976130;28;20485;-80
2023/03/06 05:48:16;;;;;;;3.27;1.07;;;3.40;99.90;;;;;;4976919;28;20255;-82
2023/03/06 05:50:44;;;;;;;6.97;1.20;;;3.30;99.90;;;;;;4976947;28;20308;-81
2023/03/06 05:53:11;;;;;;;2.13;0.90;;;3.30;99.90;;;;;;4974951;28;20562;-82
2023/03/06 05:55:38;;;;;;;5.00;1.10;;;3.30;99.90;;;;;;4976987;28;20235;-82
2023/03/06 05:58:05;;;;;;;3.23;1.00;;;3.20;99.90;;;;;;4995996;28;20291;-81
2023/03/06 06:00:32;;;;;;;2.10;1.10;;;3.20;99.90;;;;;;4995700;28;20300;-81
2023/03/06 06:03:00;;;;;;;2.00;0.87;;;3.20;99.90;;;;;;4995686;28;20646;-83
2023/03/06 06:05:27;;;;;;;1.60;1.00;;;3.20;99.90;;;;;;4995392;28;20204;-79
2023/03/06 06:07:55;;;;;;;1.10;0.90;;;3.20;99.90;;;;;;4976722;28;20215;-83
2023/03/06 06:10:22;;;;;;;3.33;1.27;;;3.20;99.90;;;;;;4985061;28;20210;-82
2023/03/06 06:12:49;;;;;;;2.13;1.20;;;3.10;99.90;;;;;;4995238;28;20204;-81
2023/03/06 06:15:16;;;;;;;2.97;1.43;;;3.10;99.90;;;;;;4991918;28;20283;-82
2023/03/06 06:17:43;;;;;;;5.47;2.13;;;3.10;99.90;;;;;;4976195;28;20292;-83
2023/03/06 06:20:11;;;;;;;3.63;1.40;;;3.10;99.90;;;;;;4975889;28;20649;-82
2023/03/06 06:22:38;;;;;;;3.20;1.40;;;3.10;99.90;;;;;;4977940;28;20227;-82
2023/03/06 06:25:08;;;;;;;2.83;1.37;;;3.00;99.90;;;;;;4994913;28;20207;-79
2023/03/06 06:27:35;;;;;;;3.73;1.37;;;3.00;99.90;;;;;;4993535;28;20203;-83
2023/03/06 06:30:02;;;;;;;3.57;1.17;;;3.00;99.90;;;;;;4982144;28;20264;-80
2023/03/06 06:32:29;;;;;;;3.17;1.40;;;3.00;99.90;;;;;;4993475;28;20240;-80
2023/03/06 06:34:55;;;;;;;3.50;1.57;;;3.00;99.90;;;;;;4993113;28;20258;-80
2023/03/06 06:37:23;;;;;;;5.07;1.77;;;3.00;99.90;;;;;;4994551;28;20227;-79
2023/03/06 06:39:50;;;;;;;3.43;1.27;;;3.00;99.90;;;;;;4995317;28;20203;-80
2023/03/06 06:42:18;;;;;;;3.43;1.40;;;3.00;99.90;;;;;;4976912;28;20260;-80
2023/03/06 06:44:45;;;;;;;2.33;1.40;;;3.00;99.90;;;;;;4974489;28;20244;-80
2023/03/06 06:47:12;;;;;;;4.10;1.93;;;3.00;99.90;;;;;;4975174;28;20300;-79
2023/03/06 06:49:39;;;;;;;2.23;1.40;;;3.00;99.90;;;;;;4974106;28;20201;-80
2023/03/06 06:52:07;;;;;;;1.30;1.13;;;3.00;99.90;;;;;;4974444;28;20197;-81
2023/03/06 06:54:34;;;;;;;3.90;1.70;;;3.00;99.90;;;;;;4974584;28;20228;-82
2023/03/06 06:57:01;;;;;;;2.73;1.07;;;3.00;99.90;;;;;;4974561;28;20197;-79
2023/03/06 06:59:30;;;;;;;1.40;1.00;;;3.10;99.90;;;;;;4974456;28;20323;-82
2023/03/06 07:01:57;;;;;;;1.20;1.00;;;3.10;99.90;;;;;;4974699;28;20208;-82
2023/03/06 07:04:24;;;;;;;2.57;1.20;;;3.20;99.90;;;;;;4974746;28;20295;-81
2023/03/06 07:06:51;;;;;;;2.70;1.00;;;3.20;99.90;;;;;;4974339;28;20212;-79
2023/03/06 07:09:18;;;;;;;3.70;1.20;;;3.30;99.90;;;;;;4990605;28;20223;-82
2023/03/06 07:11:45;;;;;;;2.70;1.50;;;3.30;99.90;;;;;;4992495;28;20205;-80
2023/03/06 07:14:12;;;;;;;2.63;1.13;;;3.30;99.90;;;;;;4974949;28;20205;-80
2023/03/06 07:16:40;;;;;;;3.30;1.17;;;3.30;99.90;;;;;;4974154;28;20232;-82
2023/03/06 07:19:08;;;;;;;3.00;2.10;;;3.30;99.90;;;;;;4978064;28;20206;-82
2023/03/06 07:21:35;;;;;;;3.30;1.80;;;3.30;99.90;;;;;;4993702;28;20211;-81
2023/03/06 07:24:02;;;;;;;4.77;2.67;;;3.30;99.90;;;;;;4993282;28;20230;-81
2023/03/06 07:26:29;;;;;;;6.20;2.73;;;3.40;99.90;;;;;;4992888;28;20263;-80
2023/03/06 07:28:56;;;;;;;8.40;2.30;;;3.40;99.90;;;;;;4993850;28;20200;-83
2023/03/06 07:31:25;;;;;;;4.87;2.50;;;3.40;99.90;;;;;;4992948;28;20207;-81
2023/03/06 07:33:54;;;;;;;4.00;2.40;;;3.40;99.90;;;;;;4983292;28;20234;-81
2023/03/06 07:36:22;;;;;;;5.83;2.20;;;3.40;99.90;;;;;;4974576;28;20196;-82
2023/03/06 07:38:48;;;;;;;3.13;2.00;;;3.40;99.90;;;;;;4973608;28;20228;-84
2023/03/06 07:41:17;;;;;;;2.27;1.70;;;3.50;99.90;;;;;;4974500;28;20692;-84
2023/03/06 07:43:45;;;;;;;2.93;1.50;;;3.50;99.90;;;;;;4974746;28;20695;-83
2023/03/06 07:46:14;;;;;;;4.97;1.63;;;3.50;99.90;;;;;;4975733;28;20256;-84
2023/03/06 07:48:41;;;;;;;5.03;2.00;;;3.60;99.90;;;;;;4993974;28;20251;-84
2023/03/06 07:51:14;;;;;;;3.87;1.40;;;3.60;99.90;;;;;;4994212;28;20202;-83
2023/03/06 07:53:40;;;;;;;4.30;1.53;;;3.60;99.90;;;;;;4994356;28;20600;-87
2023/03/06 07:56:09;;;;;;;5.87;1.63;;;3.60;99.90;;;;;;4996545;28;20283;-82
2023/03/06 07:58:37;;;;;;;3.50;1.47;;;3.70;99.90;;;;;;4995104;28;20200;-83
2023/03/06 08:01:07;;;;;;;2.17;1.60;;;3.70;99.90;;;;;;4969333;28;20214;-83
2023/03/06 08:03:34;;;;;;;3.83;1.73;;;3.80;99.90;;;;;;4993238;28;20243;-85
2023/03/06 08:06:11;;;;;;;1.80;1.17;;;3.90;99.90;;;;;;4992000;28;20203;-82
2023/03/06 08:08:39;;;;;;;2.10;1.50;;;4.00;99.90;;;;;;4985841;28;20676;-80
2023/03/06 08:11:06;;;;;;;4.47;1.80;;;4.00;99.90;;;;;;4993158;28;20208;-82
2023/03/06 08:13:33;;;;;;;3.40;1.20;;;4.10;99.90;;;;;;4983784;28;20278;-81
2023/03/06 08:16:00;;;;;;;2.03;1.57;;;4.10;99.90;;;;;;4982813;28;20196;-82
2023/03/06 08:18:28;;;;;;;3.37;1.40;;;4.20;99.90;;;;;;4992350;28;20522;-78
2023/03/06 08:21:02;;;;;;;3.47;1.63;;;4.30;99.90;;;;;;4987648;28;20201;-79
2023/03/06 08:23:31;;;;;;;3.23;1.00;;;4.40;99.90;;;;;;4989226;28;20215;-79
2023/03/06 08:25:59;;;;;;;2.07;0.73;;;4.50;99.90;;;;;;4988199;28;20236;-80
2023/03/06 08:28:27;;;;;;;0.63;0.60;;;4.50;99.90;;;;;;4991921;28;20214;-81
2023/03/06 08:30:54;;;;;;;4.93;1.00;;;4.60;99.90;;;;;;4999991;28;20670;-79
2023/03/06 08:33:21;;;;;;;2.47;0.90;;;4.70;99.90;;;;;;4990514;28;20327;-78
2023/03/06 08:35:48;;;;;;;3.70;0.90;;;4.70;99.90;;;;;;4992163;28;20383;-79
2023/03/06 08:38:15;;;;;;;2.47;0.87;;;4.70;99.90;;;;;;4992507;28;20220;-83
2023/03/06 08:40:43;;;;;;;1.60;0.67;;;4.80;99.90;;;;;;4976901;28;20227;-79
2023/03/06 08:43:11;;;;;;;1.73;0.80;;;4.90;99.90;;;;;;4984832;28;20512;-80
2023/03/06 08:45:39;;;;;;;0.97;0.50;;;4.80;99.90;;;;;;4985267;28;20214;-78
2023/03/06 08:48:06;;;;;;;1.90;0.60;;;4.90;99.90;;;;;;4996927;28;20266;-80
2023/03/06 08:50:32;;;;;;;2.13;0.67;;;4.90;99.90;;;;;;5000676;28;20200;-79
2023/03/06 08:52:59;;;;;;;2.13;0.50;;;5.00;99.90;;;;;;4994973;28;20234;-82
2023/03/06 08:55:27;;;;;;;1.27;0.60;;;5.10;99.90;;;;;;4999574;28;20209;-78
2023/03/06 08:57:57;;;;;;;0.63;0.50;;;5.20;99.90;;;;;;4991581;28;20215;-79
2023/03/06 09:00:24;;;;;;;0.70;0.53;;;5.20;99.90;;;;;;4972495;28;20234;-83
2023/03/06 09:02:51;;;;;;;0.93;0.50;;;5.30;99.90;;;;;;4972710;28;20225;-80
2023/03/06 09:05:18;;;;;;;1.13;0.50;;;5.40;99.90;;;;;;4986719;28;20231;-79
2023/03/06 09:07:45;;;;;;;1.07;0.60;;;5.40;99.90;;;;;;4992099;28;20211;-87
2023/03/06 09:10:14;;;;;;;4.63;0.77;;;5.50;99.90;;;;;;4991827;28;20291;-80
2023/03/06 09:12:41;;;;;;;2.37;0.60;;;5.50;99.90;;;;;;4990579;28;20292;-84
2023/03/06 09:15:11;;;;;;;3.40;0.50;;;5.60;99.90;;;;;;4973194;28;20211;-79
2023/03/06 09:17:38;;;;;;;1.40;0.60;;;5.60;99.90;;;;;;4972616;28;20229;-81
2023/03/06 09:20:07;;;;;;;0.47;0.40;;;5.60;99.90;;;;;;4973157;28;20211;-80
2023/03/06 09:22:34;;;;;;;1.43;0.67;;;5.70;99.90;;;;;;4972811;28;20205;-83
2023/03/06 09:25:01;;;;;;;1.93;0.60;;;5.70;99.90;;;;;;4979309;28;20238;-81
2023/03/06 09:27:28;;;;;;;2.10;0.60;;;5.80;99.90;;;;;;4992985;28;20212;-81
2023/03/06 09:29:55;;;;;;;2.13;0.70;;;5.90;99.90;;;;;;4996081;28;20210;-80
2023/03/06 09:32:24;;;;;;;0.70;0.53;;;6.00;99.90;;;;;;4984082;28;20255;-79
2023/03/06 09:34:51;;;;;;;3.57;0.87;;;6.10;99.90;;;;;;4976217;28;20299;-78
2023/03/06 09:37:18;;;;;;;3.53;0.80;;;6.20;99.90;;;;;;4993452;28;20703;-79
2023/03/06 09:39:45;;;;;;;2.13;1.10;;;6.30;99.90;;;;;;4994841;28;20208;-79
2023/03/06 09:42:17;;;;;;;1.97;1.10;;;6.40;99.90;;;;;;4979737;28;20248;-79
2023/03/06 09:44:50;;;;;;;1.47;0.80;;;6.50;99.90;;;;;;4975150;28;20221;-78
2023/03/06 09:47:41;;;;;;;1.53;1.00;;;6.60;99.90;;;;;;4975734;28;20205;-78
2023/03/06 09:50:16;;;;;;;3.77;1.10;;;6.80;99.90;;;;;;4973759;28;20205;-78
2023/03/06 09:52:55;;;;;;;2.03;1.17;;;6.90;99.90;;;;;;4975497;28;20686;-79
2023/03/06 09:55:27;;;;;;;3.40;1.10;;;6.90;99.90;;;;;;4978097;28;20240;-85
2023/03/06 09:57:58;;;;;;;1.87;1.20;;;6.90;99.90;;;;;;4976810;28;20577;-84
2023/03/06 10:00:30;;;;;;;4.13;1.70;;;7.00;99.90;;;;;;4977005;28;20263;-84
2023/03/06 10:03:10;;;;;;;2.40;1.50;;;7.00;99.90;;;;;;5008507;28;20194;-84
2023/03/06 10:05:42;;;;;;;3.33;1.60;;;7.00;99.90;;;;;;4986043;28;20679;-84
2023/03/06 10:08:21;;;;;;;5.43;1.97;;;7.00;99.90;;;;;;4977768;28;20201;-85
2023/03/06 10:10:54;;;;;;;5.53;1.57;;;7.00;99.90;;;;;;4991003;28;20295;-82
2023/03/06 10:13:28;;;;;;;2.77;1.90;;;7.00;99.90;;;;;;4995609;28;20192;-81
2023/03/06 10:16:01;;;;;;;2.77;1.30;;;7.00;99.90;;;;;;4982101;28;20212;-80
2023/03/06 10:18:30;;;;;;;3.20;1.30;;;7.00;99.90;;;;;;4976728;28;20193;-82
2023/03/06 10:21:01;;;;;;;2.43;1.10;;;7.10;99.90;;;;;;4976040;28;20227;-79
2023/03/06 10:23:42;;;;;;;3.30;1.30;;;7.20;99.90;;;;;;4975911;28;20235;-80
2023/03/06 10:26:15;;;;;;;4.73;1.30;;;7.10;99.90;;;;;;4975765;28;20212;-80
2023/03/06 10:28:46;;;;;;;2.93;1.10;;;7.20;99.90;;;;;;4975144;28;20205;-78
2023/03/06 10:31:20;;;;;;;5.13;1.60;;;7.30;99.90;;;;;;4975028;28;20605;-79
2023/03/06 10:33:54;;;;;;;3.17;1.50;;;7.30;99.90;;;;;;4974005;28;20283;-82
2023/03/06 10:36:24;;;;;;;3.07;1.17;;;7.40;99.90;;;;;;4991444;28;20306;-80
2023/03/06 10:38:51;;;;;;;3.37;1.03;;;7.40;99.90;;;;;;4993824;28;20675;-79
2023/03/06 10:41:26;;;;;;;1.43;0.70;;;7.40;99.90;;;;;;4993261;28;20212;-78
2023/03/06 10:44:22;;;;;;;1.43;0.90;;;7.50;99.90;;;;;;4975001;28;20303;-80
2023/03/06 10:46:51;;;;;;;3.23;0.90;;;7.60;99.90;;;;;;4973569;28;20251;-78
2023/03/06 10:49:34;;;;;;;3.13;0.90;;;7.60;99.90;;;;;;4973867;28;20216;-81
2023/03/06 10:52:05;;;;;;;3.73;1.17;;;7.60;99.90;;;;;;4975297;28;20223;-84
2023/03/06 10:54:34;;;;;;;2.20;1.03;;;7.50;99.90;;;;;;4974584;28;20292;-83
2023/03/06 10:57:21;;;;;;;4.20;0.90;;;7.40;99.90;;;;;;4974791;28;20295;-88
2023/03/06 10:59:53;;;;;;;3.23;0.90;;;7.50;99.90;;;;;;4975502;28;20262;-90
2023/03/06 11:02:27;;;;;;;1.47;0.90;;;7.40;99.90;;;;;;4975072;28;20228;-90
2023/03/06 11:04:56;;;;;;;3.40;1.00;;;7.40;99.90;;;;;;4976833;28;20242;-90
2023/03/06 11:07:24;;;;;;;3.90;1.00;;;7.50;99.90;;;;;;4976054;28;20331;-86
2023/03/06 11:10:06;;;;;;;0.83;0.70;;;7.50;99.90;;;;;;4976434;28;20232;-87
2023/03/06 11:12:35;;;;;;;2.80;1.10;;;7.50;99.90;;;;;;4975080;28;20218;-84
2023/03/06 11:15:24;;;;;;;2.40;0.97;;;7.60;99.90;;;;;;4976145;28;20612;-86
2023/03/06 11:17:57;;;;;;;4.47;1.20;;;7.60;99.90;;;;;;4971468;28;20494;-88
2023/03/06 11:20:28;;;;;;;3.47;1.07;;;7.60;99.90;;;;;;4976103;28;20197;-86
2023/03/06 11:22:59;;;;;;;2.97;0.97;;;7.70;99.90;;;;;;4976270;28;20200;-86
2023/03/06 11:25:32;;;;;;;4.50;1.10;;;7.70;99.90;;;;;;4997241;28;20245;-92
2023/03/06 11:28:04;;;;;;;4.53;1.13;;;7.80;99.90;;;;;;4976727;28;20192;-87
2023/03/06 11:30:38;;;;;;;1.63;1.30;;;7.90;99.90;;;;;;4975441;28;20272;-87
2023/03/06 11:33:22;;;;;;;1.67;0.90;;;7.90;99.90;;;;;;4975298;28;20645;-85
2023/03/06 11:35:57;;;;;;;2.93;1.00;;;8.00;99.90;;;;;;4975735;28;20279;-88
2023/03/06 11:38:32;;;;;;;2.83;1.20;;;8.10;99.90;;;;;;4975945;28;20215;-87
2023/03/06 11:41:03;;;;;;;3.17;1.10;;;8.20;99.90;;;;;;4976154;28;20240;-90
2023/03/06 11:43:35;;;;;;;1.80;1.30;;;8.20;99.90;;;;;;4982774;28;20212;-90
2023/03/06 11:46:08;;;;;;;4.47;1.40;;;8.30;99.90;;;;;;4989129;28;20246;-91
2023/03/06 11:48:39;;;;;;;1.47;1.17;;;8.40;99.90;;;;;;5000466;28;20204;-90
2023/03/06 11:51:14;;;;;;;4.50;1.53;;;8.50;99.90;;;;;;4979027;28;20251;-91
2023/03/06 11:53:41;;;;;;;1.80;1.50;;;8.50;99.90;;;;;;4979399;28;20697;-91
2023/03/06 11:56:24;;;;;;;6.43;2.63;;;8.50;99.90;;;;;;4977176;28;20251;-90
2023/03/06 11:59:03;;;;;;;3.23;2.20;;;8.60;99.90;;;;;;4976124;28;20251;-90
2023/03/06 12:01:35;;;;;;;5.80;2.20;;;8.70;99.90;;;;;;4985326;28;20511;-89
2023/03/06 12:04:16;;;;;;;4.67;2.30;;;8.80;99.90;;;;;;4985003;28;20571;-90
2023/03/06 12:06:55;;;;;;;2.87;2.00;;;8.90;99.90;;;;;;4989356;28;20231;-81
2023/03/06 12:09:28;;;;;;;5.20;2.57;;;9.20;99.90;;;;;;4993583;28;20195;-89
2023/03/06 12:12:17;;;;;;;4.37;3.20;;;9.30;99.90;;;;;;4988799;28;20200;-92
2023/03/06 12:14:57;;;;;;;6.67;3.60;;;9.40;99.90;;;;;;4986795;28;20247;-83
2023/03/06 12:17:36;;;;;;;4.00;3.07;;;9.40;99.90;;;;;;4989582;28;20494;-92
2023/03/06 12:20:32;;;;;;;4.90;2.97;;;9.40;99.90;;;;;;5003565;28;20278;-92
2023/03/06 12:23:10;;;;;;;5.00;3.73;;;9.50;99.90;;;;;;4975286;28;20296;-84
2023/03/06 12:25:39;;;;;;;6.67;4.20;;;9.50;99.90;;;;;;4974202;28;20245;-88
2023/03/06 12:28:26;;;;;;;4.60;3.50;;;9.50;99.90;;;;;;4974721;28;20668;-93
2023/03/06 12:31:15;;;;;;;5.63;3.77;;;9.50;99.90;;;;;;4975298;28;20248;-86
2023/03/06 12:33:50;;;;;;;4.60;3.47;;;9.50;99.90;;;;;;4975397;28;20232;-87
2023/03/06 12:36:36;;;;;;;4.80;3.53;;;9.50;99.90;;;;;;4983017;28;20606;-90
2023/03/06 12:39:10;;;;;;;7.10;3.50;;;9.50;99.90;;;;;;4981448;28;20284;-81
2023/03/06 12:41:51;;;;;;;5.57;3.87;;;9.50;99.90;;;;;;4980079;28;20231;-84
2023/03/06 12:44:46;;;;;;;5.10;3.90;;;9.40;99.90;;;;;;4976968;28;20234;-81
2023/03/06 12:47:18;;;;;;;6.60;4.53;;;9.40;99.90;;;;;;4975712;28;20280;-83
2023/03/06 12:49:51;;;;;;;4.83;4.27;;;9.40;99.90;;;;;;4973127;28;20208;-79
2023/03/06 12:52:24;;;;;;;7.47;4.83;;;9.40;99.90;;;;;;4973148;28;20756;-80
2023/03/06 12:54:54;;;;;;;5.20;4.27;;;9.40;99.90;;;;;;4972922;28;20279;-81
2023/03/06 12:57:24;;;;;;;8.07;4.80;;;9.40;99.90;;;;;;4973660;28;20199;-83
2023/03/06 12:59:52;;;;;;;5.47;4.17;;;9.30;99.90;;;;;;4972290;28;20204;-78
2023/03/06 13:02:48;;;;;;;7.30;4.10;;;9.30;99.90;;;;;;4973729;28;20588;-80
2023/03/06 13:05:33;;;;;;;7.77;3.80;;;9.30;99.90;;;;;;4976484;28;20562;-88
2023/03/06 13:08:31;;;;;;;7.20;4.67;;;9.30;99.90;;;;;;4974769;28;20207;-78
2023/03/06 13:11:22;;;;;;;7.67;4.53;;;9.30;99.90;;;;;;4976684;28;20219;-78